createdAt,value
2022-11-24T00:07:52.325Z,8.7
2022-11-24T00:18:04.090Z,8.6
2022-11-24T00:26:14.249Z,8.5
2022-11-24T00:28:15.947Z,8.4
2022-11-24T00:30:17.706Z,8.6
2022-11-24T00:34:21.160Z,8.5
2022-11-24T00:36:22.827Z,8.5
2022-11-24T00:38:24.557Z,8.6
2022-11-24T00:42:31.293Z,8.6
2022-11-24T00:44:33.317Z,8.7
2022-11-24T00:47:37.215Z,8.8
2022-11-24T00:49:38.936Z,8.7
2022-11-24T00:51:42.196Z,8.6
2022-11-24T00:53:47.074Z,8.8
2022-11-24T00:55:48.815Z,8.7
2022-11-24T00:57:50.537Z,8.6
2022-11-24T00:59:52.258Z,8.6
2022-11-24T01:01:54.054Z,8.5
2022-11-24T01:03:55.826Z,8.5
2022-11-24T01:05:57.474Z,8.6
2022-11-24T01:08:02.400Z,8.5
2022-11-24T01:10:04.126Z,8.5
2022-11-24T01:12:05.887Z,8.5
2022-11-24T01:14:07.614Z,8.4
2022-11-24T01:16:09.381Z,8.5
2022-11-24T01:18:11.061Z,8.4
2022-11-24T01:20:12.778Z,8.4
2022-11-24T01:22:17.722Z,8.6
2022-11-24T01:24:19.425Z,8.5
2022-11-24T01:26:21.154Z,8.6
2022-11-24T01:28:22.880Z,8.5
2022-11-24T01:30:24.622Z,8.7
2022-11-24T01:32:26.338Z,8.6
2022-11-24T01:34:28.052Z,8.6
2022-11-24T01:36:32.980Z,8.6
2022-11-24T01:38:34.715Z,8.6
2022-11-24T01:40:36.434Z,8.7
2022-11-24T01:41:38.937Z,8.6
2022-11-24T01:43:40.654Z,8.7
2022-11-24T01:45:42.476Z,8.6
2022-11-24T01:47:44.131Z,8.6
2022-11-24T01:49:49.048Z,8.6
2022-11-24T01:51:50.762Z,8.7
2022-11-24T01:53:52.487Z,8.6
2022-11-24T01:55:54.206Z,8.6
2022-11-24T01:57:55.940Z,8.7
2022-11-24T01:59:57.684Z,8.6
2022-11-24T02:01:59.412Z,8.5
2022-11-24T02:04:04.349Z,8.5
2022-11-24T02:22:23.053Z,8.6
2022-11-24T02:30:29.995Z,8.6
2022-11-24T02:32:34.874Z,8.5
2022-11-24T02:34:36.656Z,8.6
2022-11-24T02:36:38.333Z,8.6
2022-11-24T02:39:07.033Z,8.5
2022-11-24T02:41:08.753Z,8.4
2022-11-24T02:45:15.425Z,8.7
2022-11-24T02:47:17.103Z,8.7
2022-11-24T02:49:18.871Z,8.5
2022-11-24T02:51:20.544Z,8.7
2022-11-24T02:53:22.304Z,8.6
2022-11-24T02:55:24.002Z,8.6
2022-11-24T02:57:25.720Z,8.6
2022-11-24T02:59:30.667Z,8.6
2022-11-24T03:01:32.470Z,8.7
2022-11-24T03:03:34.180Z,8.7
2022-11-24T03:17:49.432Z,8.6
2022-11-24T03:19:51.183Z,8.6
2022-11-24T03:21:52.877Z,8.6
2022-11-24T03:23:54.642Z,8.7
2022-11-24T03:25:56.338Z,8.5
2022-11-24T03:28:01.299Z,8.5
2022-11-24T03:30:03.080Z,8.5
2022-11-24T03:32:04.769Z,8.6
2022-11-24T03:33:07.319Z,8.5
2022-11-24T03:35:08.935Z,8.5
2022-11-24T03:37:10.707Z,8.5
2022-11-24T03:39:12.447Z,8.4
2022-11-24T03:41:17.371Z,8.4
2022-11-24T03:43:19.054Z,8.4
2022-11-24T03:45:45.571Z,8.5
2022-11-24T03:47:22.490Z,8.6
2022-11-24T03:49:24.252Z,8.5
2022-11-24T03:51:25.921Z,8.6
2022-11-24T03:53:27.686Z,8.7
2022-11-24T03:55:32.631Z,8.7
2022-11-24T03:57:34.360Z,8.7
2022-11-24T03:59:36.039Z,8.7
2022-11-24T04:01:37.849Z,8.8
2022-11-24T04:03:39.479Z,8.8
2022-11-24T04:05:41.185Z,8.9
2022-11-24T04:07:42.974Z,8.7
2022-11-24T04:09:47.909Z,8.6
2022-11-24T04:11:49.599Z,8.7
2022-11-24T04:13:51.354Z,8.7
2022-11-24T04:15:53.146Z,8.7
2022-11-24T04:17:54.812Z,8.7
2022-11-24T04:19:56.494Z,8.6
2022-11-24T04:21:58.252Z,8.6
2022-11-24T04:24:03.333Z,8.6
2022-11-24T04:26:04.894Z,8.7
2022-11-24T04:28:06.623Z,8.6
2022-11-24T04:29:09.068Z,8.6
2022-11-24T04:31:10.882Z,8.6
2022-11-24T04:33:12.553Z,8.6
2022-11-24T04:35:14.268Z,8.6
2022-11-24T04:37:19.232Z,8.5
2022-11-24T04:39:24.827Z,8.6
2022-11-24T04:41:22.629Z,8.7
2022-11-24T04:43:24.386Z,8.6
2022-11-24T04:45:26.083Z,8.7
2022-11-24T04:47:27.843Z,8.6
2022-11-24T04:49:29.555Z,8.7
2022-11-24T04:51:34.525Z,8.7
2022-11-24T04:53:36.209Z,8.6
2022-11-24T04:55:37.986Z,8.7
2022-11-24T04:57:39.650Z,8.5
2022-11-24T04:59:41.418Z,8.6
2022-11-24T05:07:51.639Z,8.6
2022-11-24T05:09:59.383Z,8.5
2022-11-24T05:11:55.001Z,8.5
2022-11-24T05:13:56.684Z,8.6
2022-11-24T05:15:58.448Z,8.6
2022-11-24T05:18:00.121Z,8.5
2022-11-24T05:20:05.099Z,8.5
2022-11-24T05:22:06.842Z,8.5
2022-11-24T05:24:08.571Z,8.5
2022-11-24T05:25:10.975Z,8.5
2022-11-24T05:29:14.416Z,8.6
2022-11-24T05:31:16.233Z,8.7
2022-11-24T05:33:21.076Z,8.7
2022-11-24T05:35:22.790Z,8.7
2022-11-24T05:37:24.540Z,8.8
2022-11-24T05:39:26.254Z,8.8
2022-11-24T05:41:27.976Z,8.9
2022-11-24T05:43:29.710Z,8.7
2022-11-24T05:45:31.409Z,8.9
2022-11-24T05:47:36.376Z,9
2022-11-24T05:49:38.125Z,8.9
2022-11-24T05:51:39.869Z,9
2022-11-24T05:53:41.568Z,9
2022-11-24T06:01:51.796Z,8.9
2022-11-24T06:07:56.936Z,9
2022-11-24T06:09:58.614Z,8.9
2022-11-24T06:12:00.370Z,9
2022-11-24T06:14:04.703Z,9.1
2022-11-24T06:16:07.183Z,9
2022-11-24T06:18:08.849Z,9
2022-11-24T06:20:10.559Z,9
2022-11-24T06:22:39.156Z,9
2022-11-24T06:24:40.915Z,8.9
2022-11-24T06:26:42.655Z,9
2022-11-24T06:32:51.129Z,8.9
2022-11-24T06:34:52.835Z,8.9
2022-11-24T06:38:56.322Z,8.8
2022-11-24T06:40:58.072Z,8.8
2022-11-24T06:45:09.387Z,8.8
2022-11-24T06:55:15.059Z,8.8
2022-11-24T06:57:20.020Z,8.7
2022-11-24T06:59:21.769Z,8.7
2022-11-24T07:01:23.713Z,8.7
2022-11-24T07:03:25.272Z,8.7
2022-11-24T07:05:26.957Z,8.6
2022-11-24T07:07:28.792Z,8.6
2022-11-24T07:09:30.436Z,8.6
2022-11-24T07:11:35.402Z,8.5
2022-11-24T07:13:37.125Z,8.5
2022-11-24T07:16:41.396Z,8.5
2022-11-24T07:18:43.056Z,8.6
2022-11-24T07:22:46.550Z,8.5
2022-11-24T07:24:51.500Z,8.6
2022-11-24T07:26:53.211Z,8.6
2022-11-24T07:28:54.919Z,8.6
2022-11-24T07:30:56.650Z,8.5
2022-11-24T07:32:58.397Z,8.5
2022-11-24T07:35:00.146Z,8.5
2022-11-24T07:37:01.847Z,8.6
2022-11-24T07:39:06.808Z,8.5
2022-11-24T07:41:08.522Z,8.5
2022-11-24T07:43:10.265Z,8.5
2022-11-24T07:45:11.974Z,8.6
2022-11-24T07:47:13.711Z,8.7
2022-11-24T07:49:15.418Z,8.6
2022-11-24T07:51:17.182Z,8.7
2022-11-24T07:53:22.101Z,8.6
2022-11-24T07:55:23.840Z,8.6
2022-11-24T07:57:25.556Z,8.7
2022-11-24T07:59:27.288Z,8.7
2022-11-24T08:01:29.174Z,8.8
2022-11-24T08:03:30.789Z,8.7
2022-11-24T08:05:32.464Z,8.8
2022-11-24T08:07:37.506Z,8.7
2022-11-24T08:09:39.171Z,8.8
2022-11-24T08:11:40.895Z,8.7
2022-11-24T08:12:44.010Z,8.8
2022-11-24T08:16:46.886Z,8.8
2022-11-24T08:22:55.263Z,8.8
2022-11-24T08:24:56.986Z,8.9
2022-11-24T08:26:58.720Z,8.7
2022-11-24T08:29:00.433Z,8.8
2022-11-24T08:31:02.175Z,8.6
2022-11-24T08:33:03.894Z,8.8
2022-11-24T08:35:14.009Z,8.9
2022-11-24T08:37:10.600Z,8.9
2022-11-24T08:39:12.327Z,9
2022-11-24T08:41:14.071Z,9.1
2022-11-24T08:45:21.043Z,9.4
2022-11-24T08:47:19.234Z,9.3
2022-11-24T08:49:24.190Z,9.2
2022-11-24T08:51:26.025Z,9.4
2022-11-24T08:53:27.696Z,10.7
2022-11-24T08:55:29.391Z,11.8
2022-11-24T08:57:31.115Z,12.5
2022-11-24T08:59:32.967Z,12.9
2022-11-24T09:01:34.661Z,12.4
2022-11-24T09:05:51.671Z,11.6
2022-11-24T09:08:45.502Z,10.8
2022-11-24T09:10:47.225Z,10.6
2022-11-24T09:12:48.995Z,10.6
2022-11-24T09:14:50.760Z,10.8
2022-11-24T09:16:55.810Z,12.3
2022-11-24T09:18:58.470Z,12.6
2022-11-24T09:20:59.216Z,12.6
2022-11-24T09:23:00.942Z,13.3
2022-11-24T09:25:02.700Z,13.5
2022-11-24T09:27:04.444Z,13.4
2022-11-24T09:29:06.203Z,13.8
2022-11-24T09:31:11.308Z,12.4
2022-11-24T09:33:12.928Z,12.2
2022-11-24T09:35:14.674Z,11.5
2022-11-24T09:37:16.436Z,11
2022-11-24T09:39:18.212Z,10.7
2022-11-24T09:41:19.983Z,11.6
2022-11-24T09:43:21.755Z,11.8
2022-11-24T09:45:57.042Z,11.5
2022-11-24T09:47:28.484Z,12
2022-11-24T09:49:30.305Z,11.9
2022-11-24T09:57:37.835Z,11.4
2022-11-24T10:03:45.882Z,13.7
2022-11-24T10:06:14.517Z,13.5
2022-11-24T10:08:16.299Z,13.3
2022-11-24T10:10:24.339Z,13.3
2022-11-24T10:12:23.047Z,14.6
2022-11-24T10:14:24.817Z,15.5
2022-11-24T10:16:26.690Z,15
2022-11-24T10:18:28.381Z,14.5
2022-11-24T10:20:30.166Z,14.4
2022-11-24T10:22:31.951Z,14.9
2022-11-24T10:24:33.749Z,15.4
2022-11-24T10:26:38.780Z,15.7
2022-11-24T10:28:40.548Z,15.8
2022-11-24T10:30:42.459Z,16.2
2022-11-24T10:32:44.157Z,16.3
2022-11-24T10:34:45.927Z,16.7
2022-11-24T10:36:47.742Z,16.7
2022-11-24T10:38:49.506Z,16.9
2022-11-24T10:40:57.550Z,17.1
2022-11-24T10:42:56.485Z,16.7
2022-11-24T10:44:58.165Z,16.4
2022-11-24T10:46:59.988Z,17.2
2022-11-24T10:49:01.794Z,16.5
2022-11-24T10:51:03.543Z,16.8
2022-11-24T10:53:05.406Z,16.8
2022-11-24T10:55:10.358Z,16.3
2022-11-24T10:57:12.185Z,16.3
2022-11-24T10:59:13.981Z,14.9
2022-11-24T11:00:16.601Z,14.5
2022-11-24T11:02:18.358Z,14.7
2022-11-24T11:04:20.104Z,15.2
2022-11-24T11:06:21.924Z,15.1
2022-11-24T11:08:26.965Z,15
2022-11-24T11:10:28.776Z,15
2022-11-24T11:12:43.742Z,15.2
2022-11-24T11:14:32.374Z,15.2
2022-11-24T11:16:34.199Z,15.1
2022-11-24T11:18:36.086Z,14.3
2022-11-24T11:20:37.821Z,14.5
2022-11-24T11:22:42.855Z,13.3
2022-11-24T11:24:44.928Z,14
2022-11-24T11:26:46.462Z,14.8
2022-11-24T11:28:48.284Z,14
2022-11-24T11:31:19.248Z,13.4
2022-11-24T11:34:53.708Z,14.2
2022-11-24T11:36:58.755Z,14.2
2022-11-24T11:39:00.644Z,14.8
2022-11-24T11:41:02.376Z,14.7
2022-11-24T11:43:04.174Z,14.7
2022-11-24T11:45:05.952Z,14.9
2022-11-24T11:47:07.812Z,14.9
2022-11-24T11:49:09.574Z,15.4
2022-11-24T11:55:18.219Z,16.9
2022-11-24T11:56:20.742Z,17.6
2022-11-24T11:58:22.561Z,17.6
2022-11-24T12:00:24.363Z,18.3
2022-11-24T12:02:26.312Z,17.7
2022-11-24T12:06:33.005Z,17.7
2022-11-24T12:08:56.045Z,17.8
2022-11-24T12:10:36.625Z,17.9
2022-11-24T12:12:38.433Z,17.2
2022-11-24T12:14:40.264Z,16.9
2022-11-24T12:16:42.088Z,18.3
2022-11-24T12:28:56.206Z,19.1
2022-11-24T12:30:58.114Z,18.9
2022-11-24T12:39:10.031Z,18.8
2022-11-24T12:41:39.966Z,19.1
2022-11-24T12:43:13.656Z,18.7
2022-11-24T12:45:15.457Z,19
2022-11-24T12:47:20.523Z,17.8
2022-11-24T12:49:22.334Z,18
2022-11-24T12:51:24.303Z,18.5
2022-11-24T12:52:26.689Z,18.6
2022-11-24T12:54:28.505Z,18.3
2022-11-24T12:56:30.300Z,18.6
2022-11-24T13:00:37.184Z,17.6
2022-11-24T13:02:39.100Z,17.3
2022-11-24T13:04:40.800Z,17.8
2022-11-24T13:06:48.814Z,17.5
2022-11-24T13:08:44.417Z,17.8
2022-11-24T13:10:55.727Z,17.8
2022-11-24T13:12:48.047Z,16.1
2022-11-24T13:14:53.139Z,14.3
2022-11-24T13:17:21.194Z,13.9
2022-11-24T13:18:56.818Z,13.8
2022-11-24T13:20:58.554Z,13.5
2022-11-24T13:25:02.182Z,13.3
2022-11-24T13:27:04.002Z,13.2
2022-11-24T13:35:14.511Z,13.2
2022-11-24T13:39:18.138Z,13.1
2022-11-24T13:45:26.751Z,12.8
2022-11-24T13:47:28.555Z,12.8
2022-11-24T13:49:57.258Z,12.6
2022-11-24T13:51:59.038Z,12.7
2022-11-24T13:54:00.946Z,12.9
2022-11-24T13:56:05.934Z,12.9
2022-11-24T14:00:09.584Z,12.7
2022-11-24T14:02:11.409Z,12.7
2022-11-24T14:04:29.830Z,12.8
2022-11-24T14:06:14.906Z,12.6
2022-11-24T14:08:16.728Z,12.6
2022-11-24T14:10:21.741Z,12.5
2022-11-24T14:12:23.518Z,12.5
2022-11-24T14:14:25.314Z,12.6
2022-11-24T14:16:27.181Z,12.4
2022-11-24T14:20:30.724Z,12.3
2022-11-24T14:22:32.514Z,12.3
2022-11-24T14:24:41.538Z,12
2022-11-24T14:26:39.340Z,12.1
2022-11-24T14:28:41.214Z,11.9
2022-11-24T14:30:42.900Z,11.8
2022-11-24T14:32:44.744Z,11.8
2022-11-24T14:34:46.532Z,11.9
2022-11-24T14:36:48.304Z,11.8
2022-11-24T14:38:53.306Z,11.8
2022-11-24T14:40:55.108Z,11.7
2022-11-24T14:42:56.876Z,11.7
2022-11-24T14:43:59.434Z,11.6
2022-11-24T14:46:01.203Z,11.5
2022-11-24T14:48:02.986Z,11.5
2022-11-24T14:50:04.788Z,11.3
2022-11-24T14:52:09.778Z,11.3
2022-11-24T14:54:11.572Z,11.3
2022-11-24T14:58:15.173Z,11.2
2022-11-24T15:00:16.913Z,11.2
2022-11-24T15:02:18.812Z,11
2022-11-24T15:04:54.197Z,10.9
2022-11-24T15:06:25.458Z,10.9
2022-11-24T15:08:27.259Z,10.9
2022-11-24T15:10:33.428Z,10.8
2022-11-24T15:12:30.868Z,10.8
2022-11-24T15:14:33.065Z,10.6
2022-11-24T15:16:34.450Z,10.7
2022-11-24T15:18:36.110Z,10.5
2022-11-24T15:20:41.125Z,10.4
2022-11-24T15:22:42.915Z,10.5
2022-11-24T15:24:44.678Z,10.4
2022-11-24T15:26:46.423Z,10.4
2022-11-24T15:34:56.717Z,10.1
2022-11-24T15:39:00.225Z,10.2
2022-11-24T15:40:02.787Z,10
2022-11-24T15:42:04.490Z,10
2022-11-24T15:44:06.241Z,9.9
2022-11-24T15:46:07.988Z,10
2022-11-24T15:48:17.655Z,9.9
2022-11-24T15:50:14.771Z,9.8
2022-11-24T15:52:16.478Z,9.8
2022-11-24T15:54:18.256Z,9.8
2022-11-24T15:56:19.991Z,9.8
2022-11-24T16:00:23.646Z,9.8
2022-11-24T16:02:28.543Z,9.6
2022-11-24T16:04:30.252Z,9.6
2022-11-24T16:06:31.997Z,9.6
2022-11-24T16:10:35.648Z,9.5
2022-11-24T16:12:37.280Z,9.5
2022-11-24T16:14:39.224Z,9.5
2022-11-24T16:16:44.138Z,9.4
2022-11-24T16:18:45.717Z,9.3
2022-11-24T16:20:47.492Z,9.4
2022-11-24T16:22:49.246Z,9.3
2022-11-24T16:24:50.983Z,9.3
2022-11-24T16:26:52.707Z,9.3
2022-11-24T16:28:54.442Z,9.2
2022-11-24T16:30:59.422Z,9.3
2022-11-24T16:33:01.171Z,9.3
2022-11-24T16:36:05.435Z,9.3
2022-11-24T16:38:07.145Z,9.3
2022-11-24T16:40:08.879Z,9.3
2022-11-24T16:42:10.641Z,9.2
2022-11-24T16:44:15.613Z,9.1
2022-11-24T16:46:17.561Z,9.2
2022-11-24T16:48:19.104Z,9.2
2022-11-24T16:50:20.854Z,9.2
2022-11-24T16:52:22.586Z,9.3
2022-11-24T16:54:24.340Z,9.2
2022-11-24T16:56:26.248Z,9.2
2022-11-24T16:58:31.035Z,9.2
2022-11-24T17:00:32.790Z,9.3
2022-11-24T17:02:34.557Z,9.3
2022-11-24T17:04:36.608Z,9.3
2022-11-24T17:06:38.021Z,9.2
2022-11-24T17:08:39.723Z,9.3
2022-11-24T17:10:41.467Z,9.4
2022-11-24T17:12:46.432Z,9.3
2022-11-24T17:15:09.315Z,9.3
2022-11-24T17:16:50.149Z,9.5
2022-11-24T17:18:51.633Z,9.4
2022-11-24T17:20:53.403Z,9.4
2022-11-24T17:22:55.125Z,9.4
2022-11-24T17:24:56.841Z,9.6
2022-11-24T17:27:01.838Z,9.4
2022-11-24T17:35:35.627Z,9.5
2022-11-24T17:37:37.348Z,9.4
2022-11-24T17:39:42.440Z,9.3
2022-11-24T17:43:45.790Z,9.4
2022-11-24T17:45:47.599Z,9.5
2022-11-24T17:47:49.281Z,9.5
2022-11-24T17:53:57.759Z,9.3
2022-11-24T18:02:04.791Z,9.6
2022-11-24T18:04:06.439Z,9.6
2022-11-24T18:06:08.173Z,9.6
2022-11-24T18:08:13.103Z,9.5
2022-11-24T18:10:14.843Z,9.4
2022-11-24T18:12:16.576Z,9.4
2022-11-24T18:14:18.324Z,9.6
2022-11-24T18:16:20.145Z,9.6
2022-11-24T18:18:21.809Z,9.6
2022-11-24T18:20:23.553Z,9.7
2022-11-24T18:22:57.881Z,9.5
2022-11-24T18:24:31.825Z,9.5
2022-11-24T18:26:33.553Z,9.5
2022-11-24T18:27:36.016Z,9.5
2022-11-24T18:29:37.762Z,9.4
2022-11-24T18:35:46.219Z,9.4
2022-11-24T18:37:47.957Z,9.5
2022-11-24T18:39:49.708Z,9.3
2022-11-24T18:41:51.439Z,9.5
2022-11-24T18:43:53.160Z,9.4
2022-11-24T18:45:54.931Z,9.3
2022-11-24T18:47:56.632Z,9.3
2022-11-24T18:50:01.579Z,9.2
2022-11-24T18:52:03.309Z,9.2
2022-11-24T18:54:05.044Z,9.3
2022-11-24T18:56:06.794Z,9.3
2022-11-24T19:00:10.257Z,9.3
2022-11-24T19:02:12.037Z,9.1
2022-11-24T19:04:16.962Z,9
2022-11-24T19:06:18.724Z,9.1
2022-11-24T19:08:20.470Z,9.1
2022-11-24T19:10:22.192Z,9
2022-11-24T19:12:23.922Z,9.1
2022-11-24T19:14:25.652Z,9
2022-11-24T19:16:27.462Z,9.1
2022-11-24T19:18:32.372Z,9.1
2022-11-24T19:20:34.119Z,9.1
2022-11-24T19:22:35.840Z,9.1
2022-11-24T19:23:38.309Z,8.9
2022-11-24T19:25:40.068Z,9.1
2022-11-24T19:27:41.785Z,9
2022-11-24T19:29:43.527Z,9
2022-11-24T19:31:48.630Z,8.9
2022-11-24T19:33:50.242Z,9
2022-11-24T19:35:51.993Z,8.8
2022-11-24T19:37:53.702Z,8.8
2022-11-24T19:39:55.459Z,8.8
2022-11-24T19:41:57.183Z,8.9
2022-11-24T19:46:03.953Z,8.8
2022-11-24T19:48:05.615Z,8.8
2022-11-24T19:50:10.389Z,8.7
2022-11-24T19:52:09.074Z,8.8
2022-11-24T19:54:10.787Z,8.7
2022-11-24T19:56:12.540Z,8.7
2022-11-24T19:58:14.265Z,8.6
2022-11-24T20:00:19.233Z,8.6
2022-11-24T20:02:20.960Z,8.5
2022-11-24T20:04:22.653Z,8.6
2022-11-24T20:06:24.379Z,8.6
2022-11-24T20:08:26.124Z,8.5
2022-11-24T20:10:27.849Z,8.5
2022-11-24T20:12:29.577Z,8.6
2022-11-24T20:14:34.799Z,8.6
2022-11-24T20:16:36.302Z,8.5
2022-11-24T20:18:41.951Z,8.4
2022-11-24T20:21:42.201Z,8.5
2022-11-24T20:23:43.916Z,8.4
2022-11-24T20:25:45.660Z,8.4
2022-11-24T20:27:50.606Z,8.3
2022-11-24T20:29:52.338Z,8.5
2022-11-24T20:31:54.119Z,8.5
2022-11-24T20:35:57.509Z,8.5
2022-11-24T20:37:59.237Z,8.4
2022-11-24T20:42:05.899Z,8.6
2022-11-24T20:44:07.615Z,8.5
2022-11-24T20:52:14.553Z,8.3
2022-11-24T20:54:16.267Z,8.5
2022-11-24T20:56:21.182Z,8.3
2022-11-24T20:58:22.907Z,8.3
2022-11-24T21:00:24.670Z,8.5
2022-11-24T21:02:26.405Z,8.3
2022-11-24T21:04:28.114Z,8.4
2022-11-24T21:06:29.794Z,8.5
2022-11-24T21:08:31.517Z,8.4
2022-11-24T21:10:36.607Z,8.5
2022-11-24T21:12:38.188Z,8.5
2022-11-24T21:14:40.394Z,8.4
2022-11-24T21:19:10.235Z,8.6
2022-11-24T21:21:11.943Z,8.6
2022-11-24T21:23:16.916Z,8.7
2022-11-24T21:25:18.653Z,8.5
2022-11-24T21:27:20.369Z,8.6
2022-11-24T21:29:22.097Z,8.6
2022-11-24T21:31:23.893Z,8.7
2022-11-24T21:35:27.266Z,8.9
2022-11-24T21:37:32.240Z,8.8
2022-11-24T21:39:33.996Z,9
2022-11-24T21:43:37.420Z,9
2022-11-24T21:45:39.226Z,9
2022-11-24T21:47:40.878Z,8.9
2022-11-24T21:49:42.594Z,9
2022-11-24T21:51:47.614Z,9
2022-11-24T21:53:49.321Z,9
2022-11-24T22:03:57.975Z,9.1
2022-11-24T22:08:04.688Z,9.2
2022-11-24T22:10:06.446Z,9.2
2022-11-24T22:13:10.674Z,9.2
2022-11-24T22:15:12.406Z,9.3
2022-11-24T22:17:14.147Z,9.3
2022-11-24T22:19:19.135Z,9.2
2022-11-24T22:21:20.836Z,9.3
2022-11-24T22:27:26.183Z,9.2
2022-11-24T22:29:27.822Z,9.3
2022-11-24T22:31:29.621Z,9.1
2022-11-24T22:33:34.541Z,9.1
2022-11-24T22:35:36.297Z,9.2
2022-11-24T22:37:38.009Z,9.1
2022-11-24T22:39:39.765Z,9.2
2022-11-24T22:41:41.522Z,9.1
2022-11-24T22:43:43.246Z,9.2
2022-11-24T22:45:45.029Z,9
2022-11-24T22:47:49.961Z,9
2022-11-24T22:49:51.677Z,9
2022-11-24T22:55:56.912Z,9
2022-11-24T22:57:58.649Z,8.9
2022-11-24T23:00:00.409Z,9
2022-11-24T23:04:07.121Z,9
2022-11-24T23:06:08.846Z,9.1
2022-11-24T23:07:11.444Z,9.1
2022-11-24T23:09:13.091Z,9.1
2022-11-24T23:11:14.825Z,9
2022-11-24T23:13:16.567Z,9.1
2022-11-24T23:15:21.549Z,9
2022-11-24T23:17:23.291Z,9.1
2022-11-24T23:21:26.796Z,9.1
2022-11-24T23:23:28.518Z,9.2
2022-11-24T23:25:30.259Z,9.1
2022-11-24T23:27:31.989Z,9.2
2022-11-24T23:29:36.988Z,9.1
2022-11-24T23:31:38.773Z,9.2
2022-11-24T23:33:40.482Z,9.2
2022-11-24T23:35:42.230Z,9.3
2022-11-24T23:38:06.626Z,9.2
2022-11-24T23:39:45.720Z,9.3
2022-11-24T23:41:47.440Z,9.3
2022-11-24T23:43:52.482Z,9.3
2022-11-24T23:45:54.238Z,9.5
2022-11-24T23:47:55.951Z,9.4
2022-11-24T23:49:57.672Z,9.3
2022-11-24T23:51:59.438Z,9.4
2022-11-24T23:54:01.170Z,9.3
2022-11-24T23:56:02.927Z,9.4
2022-11-24T23:58:07.874Z,9.4
